Time;durP1;ratioP1;P1;durP2;ratioP2;P2;SDS_P1;SDS_P2;PMS_P1;PMS_P2;Temp;Humidity;BMP_temperature;BMP_pressure;BME280_temperature;BME280_humidity;BME280_pressure;Samples;Min_cycle;Max_cycle;Signal;HPM_P1;HPM_P2
2021/07/09 00:02:06;;;;;;;;;0.00;0.00;;;;;26.21;39.83;101514.00;5055244;28;45472;-68
2021/07/09 00:04:32;;;;;;;;;0.00;0.00;;;;;26.22;39.97;101521.22;5055777;28;45832;-68
2021/07/09 00:06:57;;;;;;;;;0.00;0.00;;;;;26.20;39.94;101517.66;5055301;28;45389;-68
2021/07/09 00:09:24;;;;;;;;;0.00;0.00;;;;;26.18;39.88;101517.75;5036755;28;47202;-68
2021/07/09 00:11:51;;;;;;;;;0.00;0.00;;;;;26.15;40.09;101523.28;5055203;28;45453;-69
2021/07/09 00:14:20;;;;;;;;;0.00;0.00;;;;;26.16;39.96;101516.91;5037003;28;45539;-68
2021/07/09 00:16:47;;;;;;;;;0.00;0.00;;;;;26.14;39.94;101516.97;5053978;28;45420;-68
2021/07/09 00:19:12;;;;;;;;;0.00;0.00;;;;;26.13;40.16;101520.63;5054950;28;46140;-68
2021/07/09 00:21:38;;;;;;;;;0.00;0.00;;;;;26.13;40.10;101525.19;5054869;28;45326;-68
2021/07/09 00:24:05;;;;;;;;;0.00;0.00;;;;;26.11;40.41;101521.63;5054680;28;45417;-69
2021/07/09 00:26:32;;;;;;;;;0.00;0.00;;;;;26.10;40.29;101517.16;5055107;28;45482;-68
2021/07/09 00:28:58;;;;;;;;;0.00;0.00;;;;;26.09;40.64;101515.34;5054717;28;45425;-68
2021/07/09 00:31:24;;;;;;;;;0.00;0.00;;;;;26.07;40.33;101523.59;5054537;28;45475;-68
2021/07/09 00:33:50;;;;;;;;;0.00;0.00;;;;;26.01;40.29;101512.91;5054735;28;45435;-68
2021/07/09 00:36:16;;;;;;;;;0.00;0.00;;;;;26.05;40.42;101519.16;5054708;28;45419;-68
2021/07/09 00:38:41;;;;;;;;;0.00;0.00;;;;;26.04;40.45;101522.84;5054458;28;46535;-68
2021/07/09 00:41:06;;;;;;;;;0.00;0.00;;;;;26.03;40.43;101516.47;5054440;28;45428;-68
2021/07/09 00:43:32;;;;;;;;;0.00;0.00;;;;;26.02;40.30;101513.84;5054855;28;45533;-68
2021/07/09 00:45:58;;;;;;;;;0.00;0.00;;;;;26.01;40.30;101512.91;5055170;28;45402;-68
2021/07/09 00:48:23;;;;;;;;;0.00;0.00;;;;;25.99;40.43;101517.53;5054529;28;45437;-68
2021/07/09 00:50:48;;;;;;;;;0.00;0.00;;;;;25.99;40.80;101525.72;5054467;28;45416;-68
2021/07/09 00:53:15;;;;;;;;;0.00;0.00;;;;;25.98;40.51;101523.94;5054676;28;45410;-68
2021/07/09 00:55:40;;;;;;;;;0.00;0.00;;;;;25.97;40.33;101529.44;5054781;28;45414;-68
2021/07/09 00:58:06;;;;;;;;;0.00;0.00;;;;;25.96;40.54;101525.84;5054123;28;45963;-68
2021/07/09 01:00:32;;;;;;;;;0.00;0.00;;;;;25.95;40.69;101521.31;5055103;28;45474;-68
2021/07/09 01:02:58;;;;;;;;;0.00;0.00;;;;;25.94;40.69;101522.28;5054445;28;45475;-68
2021/07/09 01:05:24;;;;;;;;;0.00;0.00;;;;;25.91;40.73;101523.28;5054590;28;45360;-68
2021/07/09 01:07:49;;;;;;;;;0.00;0.00;;;;;25.93;40.72;101521.41;5054203;28;45455;-68
2021/07/09 01:10:18;;;;;;;;;0.00;0.00;;;;;25.92;40.62;101522.34;5054252;28;45461;-68
2021/07/09 01:12:44;;;;;;;;;0.00;0.00;;;;;25.88;40.48;101520.66;5054494;28;45495;-69
2021/07/09 01:15:18;;;;;;;;;0.00;0.00;;;;;25.92;40.76;101529.63;5054736;28;44802;-68
2021/07/09 01:17:44;;;;;;;;;0.00;0.00;;;;;25.89;40.68;101529.69;5052838;28;45561;-69
2021/07/09 01:20:13;;;;;;;;;0.00;0.00;;;;;25.90;40.60;101526.09;5054414;28;45408;-68
2021/07/09 01:22:42;;;;;;;;;0.00;0.00;;;;;25.89;40.65;101532.44;5053891;28;45457;-69
2021/07/09 01:25:10;;;;;;;;;0.00;0.00;;;;;25.90;40.68;101534.25;5053210;28;45465;-68
2021/07/09 01:27:37;;;;;;;;;0.00;0.00;;;;;25.90;40.71;101536.97;5054592;28;45690;-68
2021/07/09 01:30:08;;;;;;;;;0.00;0.00;;;;;25.89;40.70;101535.16;5057558;28;45559;-68
2021/07/09 01:32:33;;;;;;;;;0.00;0.00;;;;;25.87;40.70;101526.16;5057491;28;45468;-68
2021/07/09 01:34:58;;;;;;;;;0.00;0.00;;;;;25.86;40.49;101527.09;5057667;28;45409;-68
2021/07/09 01:37:24;;;;;;;;;0.00;0.00;;;;;25.87;40.82;101539.78;5057468;28;46236;-68
2021/07/09 01:39:49;;;;;;;;;0.00;0.00;;;;;25.86;40.83;101535.28;5039495;28;45329;-68
2021/07/09 01:42:14;;;;;;;;;0.00;0.00;;;;;25.85;41.00;101531.66;5057810;28;45837;-68
2021/07/09 01:44:42;;;;;;;;;0.00;0.00;;;;;25.85;40.88;101528.03;5057734;28;45667;-68
2021/07/09 01:47:07;;;;;;;;;0.00;0.00;;;;;25.85;40.98;101528.03;5057309;28;45687;-69
2021/07/09 01:49:57;;;;;;;;;0.00;0.00;;;;;25.83;40.67;101524.47;5057324;28;45401;-68
2021/07/09 01:52:23;;;;;;;;;0.00;0.00;;;;;25.84;40.85;101532.59;5057577;28;45893;-69
2021/07/09 01:54:49;;;;;;;;;0.00;0.00;;;;;25.83;40.89;101527.22;5057299;28;45498;-68
2021/07/09 01:57:14;;;;;;;;;0.00;0.00;;;;;25.81;40.89;101524.53;5056954;28;46249;-68
2021/07/09 01:59:42;;;;;;;;;0.00;0.00;;;;;25.82;41.09;101520.00;5056908;28;45354;-69
2021/07/09 02:02:08;;;;;;;;;0.00;0.00;;;;;25.80;40.92;101528.22;5053567;28;45446;-68
2021/07/09 02:04:42;;;;;;;;;0.00;0.00;;;;;25.80;40.89;101524.63;5051636;28;45707;-68
2021/07/09 02:07:08;;;;;;;;;0.00;0.00;;;;;25.79;41.03;101517.38;5056971;28;45456;-68
2021/07/09 02:09:33;;;;;;;;;0.00;0.00;;;;;25.79;41.08;101522.81;5056931;28;45436;-68
2021/07/09 02:11:58;;;;;;;;;0.00;0.00;;;;;25.78;40.95;101526.50;5056829;28;45403;-68
2021/07/09 02:14:24;;;;;;;;;0.00;0.00;;;;;25.77;40.93;101519.25;5057151;28;45453;-68
2021/07/09 02:16:49;;;;;;;;;0.00;0.00;;;;;25.76;40.83;101512.94;5056737;28;45496;-68
2021/07/09 02:19:14;;;;;;;;;0.75;0.75;;;;;25.75;41.14;101517.50;5056963;28;45448;-68
2021/07/09 02:21:46;;;;;;;;;0.00;0.00;;;;;25.75;41.11;101516.59;5056852;28;45504;-68
2021/07/09 02:24:11;;;;;;;;;0.00;0.00;;;;;25.74;41.00;101526.59;5056924;28;45454;-68
2021/07/09 02:26:37;;;;;;;;;0.00;0.00;;;;;25.72;41.14;101520.31;5056621;28;46075;-68
2021/07/09 02:29:10;;;;;;;;;0.00;0.00;;;;;25.73;41.08;101519.41;5056717;28;45413;-68
2021/07/09 02:31:35;;;;;;;;;0.00;0.00;;;;;25.72;41.05;101514.88;5056627;28;45429;-68
2021/07/09 02:34:00;;;;;;;;;0.00;0.00;;;;;25.72;40.98;101514.88;5056473;28;45596;-68
2021/07/09 02:36:26;;;;;;;;;0.00;0.00;;;;;25.72;41.25;101512.16;5056307;28;45433;-68
2021/07/09 02:38:52;;;;;;;;;0.00;0.00;;;;;25.71;41.33;101510.38;5056212;28;45530;-68
2021/07/09 02:41:18;;;;;;;;;0.00;0.00;;;;;25.72;41.09;101509.44;5056299;28;45479;-68
2021/07/09 02:43:44;;;;;;;;;0.00;0.00;;;;;25.70;41.42;101503.16;5056887;28;45464;-68
2021/07/09 02:46:10;;;;;;;;;0.00;0.00;;;;;25.71;41.37;101507.66;5056472;28;45499;-68
2021/07/09 02:48:35;;;;;;;;;0.00;0.00;;;;;25.73;41.41;101507.56;5056135;28;45437;-68
2021/07/09 02:51:00;;;;;;;;;0.00;0.00;;;;;25.71;41.01;101499.50;5038598;28;45422;-68
2021/07/09 02:53:27;;;;;;;;;0.00;0.00;;;;;25.71;41.24;101504.94;5056989;28;45820;-68
2021/07/09 02:55:55;;;;;;;;;0.00;0.00;;;;;25.71;41.34;101506.75;5055934;28;45469;-68
2021/07/09 02:58:20;;;;;;;;;0.00;0.00;;;;;25.70;41.35;101503.16;5056704;28;45433;-68
2021/07/09 03:00:46;;;;;;;;;0.00;0.00;;;;;25.72;41.17;101511.25;5056460;28;45397;-68
2021/07/09 03:03:11;;;;;;;;;0.00;0.00;;;;;25.70;41.30;101500.41;5056899;28;45418;-68
2021/07/09 03:05:37;;;;;;;;;0.00;0.00;;;;;25.70;41.36;101497.69;5056197;28;45464;-68
2021/07/09 03:08:03;;;;;;;;;0.00;0.00;;;;;25.70;41.17;101503.16;5056410;28;45485;-67
2021/07/09 03:10:28;;;;;;;;;0.00;0.00;;;;;25.70;41.31;101491.38;5038265;28;45525;-68
2021/07/09 03:12:54;;;;;;;;;0.00;0.00;;;;;25.69;41.22;101492.28;5056355;28;45504;-67
2021/07/09 03:15:19;;;;;;;;;0.00;0.00;;;;;25.69;41.14;101497.75;5055620;28;45484;-68
2021/07/09 03:17:46;;;;;;;;;0.00;0.00;;;;;25.70;41.39;101488.63;5056139;28;45527;-67
2021/07/09 03:20:12;;;;;;;;;0.00;0.00;;;;;25.69;41.32;101501.38;5056026;28;45590;-68
2021/07/09 03:22:38;;;;;;;;;0.00;0.00;;;;;25.69;41.30;101486.84;5055942;28;45479;-67
2021/07/09 03:25:12;;;;;;;;;0.00;0.00;;;;;25.69;41.25;101489.56;5055775;28;46196;-67
2021/07/09 03:27:38;;;;;;;;;0.00;0.00;;;;;25.69;41.54;101500.47;5055709;28;45825;-68
2021/07/09 03:30:06;;;;;;;;;0.00;0.00;;;;;25.69;41.33;101500.47;5054657;28;45409;-67
2021/07/09 03:32:31;;;;;;;;;0.00;0.00;;;;;25.64;41.20;101495.19;5056164;28;45880;-68
2021/07/09 03:34:56;;;;;;;;;0.00;0.00;;;;;25.68;41.42;101491.41;5037276;28;45485;-68
2021/07/09 03:37:22;;;;;;;;;0.00;0.00;;;;;25.68;41.05;101485.09;5055849;28;45892;-68
2021/07/09 03:39:47;;;;;;;;;0.00;0.00;;;;;25.67;41.37;101481.47;5055993;28;45453;-68
2021/07/09 03:42:13;;;;;;;;;0.00;0.00;;;;;25.67;41.42;101486.94;5055465;28;45438;-68
2021/07/09 03:44:39;;;;;;;;;0.00;0.00;;;;;25.68;41.38;101482.34;5055498;28;45486;-68
2021/07/09 03:47:04;;;;;;;;;0.00;0.00;;;;;25.66;41.57;101490.59;5055351;28;45773;-67
2021/07/09 03:49:29;;;;;;;;;0.00;0.00;;;;;25.64;41.14;101476.13;5055047;28;45489;-68
2021/07/09 03:51:55;;;;;;;;;0.00;0.00;;;;;25.67;41.22;101492.38;5054334;28;45437;-68
2021/07/09 03:54:20;;;;;;;;;0.00;0.00;;;;;25.66;41.79;101493.31;5055157;28;45468;-67
2021/07/09 03:56:45;;;;;;;;;0.00;0.00;;;;;25.67;41.45;101492.38;5055432;28;45388;-67
2021/07/09 03:59:11;;;;;;;;;0.00;0.00;;;;;25.64;41.59;101491.59;5055545;28;45526;-67
2021/07/09 04:01:36;;;;;;;;;0.00;0.00;;;;;25.64;41.28;101492.47;5055105;28;44818;-67
2021/07/09 04:04:02;;;;;;;;;0.00;0.00;;;;;25.64;41.55;101481.56;5053628;28;47039;-67
2021/07/09 04:06:28;;;;;;;;;0.00;0.00;;;;;25.64;41.58;101481.56;5055320;28;45540;-67
2021/07/09 04:08:54;;;;;;;;;0.00;0.00;;;;;25.65;41.25;101488.81;5055119;28;45399;-67
2021/07/09 04:11:19;;;;;;;;;0.00;0.00;;;;;25.63;41.22;101493.44;5055263;28;45385;-67
2021/07/09 04:13:44;;;;;;;;;0.00;0.00;;;;;25.64;41.49;101478.84;5054708;28;45457;-67
2021/07/09 04:16:10;;;;;;;;;0.00;0.00;;;;;25.64;41.70;101481.56;5054899;28;45461;-67
2021/07/09 04:18:38;;;;;;;;;0.00;0.00;;;;;25.63;41.62;101474.38;5055056;28;45671;-67
2021/07/09 04:21:03;;;;;;;;;0.00;0.00;;;;;25.65;41.42;101477.91;5037345;28;45511;-68
2021/07/09 04:23:29;;;;;;;;;0.00;0.00;;;;;25.65;41.60;101483.38;5054683;28;45113;-68
2021/07/09 04:25:54;;;;;;;;;0.00;0.00;;;;;25.65;41.59;101490.63;5053546;28;45402;-67
2021/07/09 04:28:19;;;;;;;;;0.00;0.00;;;;;25.65;41.42;101494.28;5054879;28;45350;-67
2021/07/09 04:30:45;;;;;;;;;0.00;0.00;;;;;25.66;41.57;101493.31;5055014;28;45410;-68
2021/07/09 04:33:10;;;;;;;;;0.00;0.00;;;;;25.67;41.64;101502.34;5054670;28;46293;-68
2021/07/09 04:35:35;;;;;;;;;0.00;0.00;;;;;25.65;41.40;101494.28;5054646;28;45478;-67
2021/07/09 04:38:01;;;;;;;;;0.00;0.00;;;;;25.67;41.28;101506.00;5054843;28;45393;-67
2021/07/09 04:40:26;;;;;;;;;0.00;0.00;;;;;25.67;41.53;101503.28;5036832;28;45506;-67
2021/07/09 04:42:52;;;;;;;;;0.00;0.00;;;;;25.68;41.30;101499.59;5054784;28;45964;-67
2021/07/09 04:45:17;;;;;;;;;0.00;0.00;;;;;25.68;41.33;101505.03;5054809;28;44792;-67
2021/07/09 04:47:43;;;;;;;;;0.00;0.00;;;;;25.67;41.46;101503.28;5054211;28;45339;-67
2021/07/09 04:50:09;;;;;;;;;0.00;0.00;;;;;25.70;41.80;101502.25;5054790;28;45580;-67
2021/07/09 04:52:35;;;;;;;;;0.00;0.00;;;;;25.68;41.42;101505.03;5054584;28;45357;-68
2021/07/09 04:55:01;;;;;;;;;0.00;0.00;;;;;25.71;41.80;101509.47;5036343;28;45422;-68
2021/07/09 04:57:26;;;;;;;;;0.00;0.00;;;;;25.70;41.74;101513.16;5054707;28;45498;-69
2021/07/09 04:59:52;;;;;;;;;0.00;0.00;;;;;25.71;41.33;101504.94;5054894;28;45437;-68
2021/07/09 05:02:18;;;;;;;;;0.00;0.00;;;;;25.72;41.54;101506.69;5054812;28;45413;-68
2021/07/09 05:04:43;;;;;;;;;0.00;0.00;;;;;25.73;41.49;101507.56;5039655;28;45541;-68
2021/07/09 05:07:09;;;;;;;;;0.00;0.00;;;;;25.74;41.90;101514.81;5057913;28;45443;-68
2021/07/09 05:09:35;;;;;;;;;0.00;0.00;;;;;25.74;41.42;101512.97;5058332;28;44806;-67
2021/07/09 05:12:00;;;;;;;;;0.00;0.00;;;;;25.75;41.60;101511.13;5057236;28;46205;-68
2021/07/09 05:14:27;;;;;;;;;0.00;0.00;;;;;25.77;41.40;101502.91;5058100;28;45385;-68
2021/07/09 05:16:53;;;;;;;;;0.00;0.00;;;;;25.76;41.39;101504.75;5058595;28;45468;-69
2021/07/09 05:19:20;;;;;;;;;0.00;0.00;;;;;25.77;41.28;101514.69;5058178;28;45405;-68
2021/07/09 05:21:45;;;;;;;;;0.00;0.00;;;;;25.76;41.64;101512.94;5039581;28;46608;-68
2021/07/09 05:24:12;;;;;;;;;0.00;0.00;;;;;25.78;41.61;101521.06;5057794;28;45564;-69
2021/07/09 05:26:38;;;;;;;;;0.00;0.00;;;;;25.79;41.30;101520.09;5057842;28;45457;-68
2021/07/09 05:29:04;;;;;;;;;0.00;0.00;;;;;25.79;41.39;101526.44;5057832;28;45390;-68
2021/07/09 05:31:32;;;;;;;;;0.00;0.00;;;;;25.80;41.46;101524.63;5057285;28;45464;-68
2021/07/09 05:33:59;;;;;;;;;0.00;0.00;;;;;25.77;41.63;101520.16;5057448;28;45425;-67
2021/07/09 05:36:24;;;;;;;;;0.00;0.00;;;;;25.80;41.50;101524.63;5057552;28;45627;-68
2021/07/09 05:38:49;;;;;;;;;0.00;0.00;;;;;25.80;41.18;101525.50;5057401;28;45417;-68
2021/07/09 05:41:15;;;;;;;;;0.00;0.00;;;;;25.81;41.70;101516.34;5057055;28;46656;-68
2021/07/09 05:43:42;;;;;;;;;0.00;0.00;;;;;25.82;41.42;101523.59;5057203;28;45418;-68
2021/07/09 05:46:08;;;;;;;;;0.00;0.00;;;;;25.83;41.45;101514.47;5057430;28;45473;-68
2021/07/09 05:48:33;;;;;;;;;0.00;0.00;;;;;25.84;41.57;101523.56;5056912;28;45441;-68
2021/07/09 05:50:58;;;;;;;;;0.00;0.00;;;;;25.85;41.40;101517.13;5057172;28;46205;-68
2021/07/09 05:53:24;;;;;;;;;0.00;0.00;;;;;25.86;41.44;101518.94;5056757;28;45527;-68
2021/07/09 05:55:49;;;;;;;;;0.00;0.00;;;;;25.86;41.28;101528.00;5057170;28;45763;-68
2021/07/09 05:58:15;;;;;;;;;1.00;1.00;;;;;25.86;41.46;101519.81;5056697;28;45520;-67
2021/07/09 06:00:42;;;;;;;;;1.00;1.00;;;;;25.83;41.65;101530.81;5056196;28;45477;-67
2021/07/09 06:03:08;;;;;;;;;7.67;7.67;;;;;25.72;41.59;101525.78;5056994;28;45532;-67
2021/07/09 06:05:33;;;;;;;;;3.33;3.33;;;;;25.59;41.93;101532.59;5039082;28;45406;-67
2021/07/09 06:08:07;;;;;;;;;4.67;4.67;;;;;25.46;42.09;101531.28;5038121;28;45439;-67
2021/07/09 06:10:33;;;;;;;;;4.00;3.33;;;;;25.28;42.46;101532.81;5048831;28;47153;-66
2021/07/09 06:12:58;;;;;;;;;6.33;5.00;;;;;25.12;42.31;101533.28;5056452;28;45497;-67
2021/07/09 06:15:27;;;;;;;;;6.00;6.00;;;;;25.04;42.46;101529.06;5053503;28;45466;-66
2021/07/09 06:17:53;;;;;;;;;3.67;3.67;;;;;25.01;42.91;101534.63;5056095;28;45519;-67
2021/07/09 06:20:19;;;;;;;;;6.33;6.33;;;;;24.99;43.26;101539.22;5055670;28;45557;-67
2021/07/09 06:22:46;;;;;;;;;4.67;4.67;;;;;24.97;43.16;101544.72;5056160;28;45679;-67
2021/07/09 06:25:12;;;;;;;;;6.67;6.67;;;;;24.88;43.36;101539.56;5056689;28;45789;-67
2021/07/09 06:27:39;;;;;;;;;6.00;5.33;;;;;24.77;43.53;101537.19;5038728;28;45639;-67
2021/07/09 06:30:06;;;;;;;;;7.00;6.00;;;;;24.73;43.73;101552.72;5056120;28;45676;-67
2021/07/09 06:32:33;;;;;;;;;6.00;6.00;;;;;24.71;43.41;101548.28;5055932;28;45802;-67
2021/07/09 06:34:58;;;;;;;;;7.00;7.00;;;;;24.69;44.19;101545.59;5038032;28;45506;-67
2021/07/09 06:37:24;;;;;;;;;8.00;8.00;;;;;24.65;43.72;101551.19;5038581;28;45572;-67
2021/07/09 06:39:50;;;;;;;;;6.00;6.00;;;;;24.64;44.36;101552.13;5056564;28;45397;-67
2021/07/09 06:42:15;;;;;;;;;6.00;5.00;;;;;24.62;43.93;101554.91;5056415;28;45450;-67
2021/07/09 06:44:40;;;;;;;;;5.67;5.00;;;;;24.59;44.43;101549.56;5055443;28;45457;-67
2021/07/09 06:47:06;;;;;;;;;7.00;7.00;;;;;24.59;43.80;101559.56;5056053;28;44947;-66
2021/07/09 06:49:31;;;;;;;;;4.00;4.00;;;;;24.56;43.82;101549.63;5055662;28;45571;-66
2021/07/09 06:51:56;;;;;;;;;4.00;4.00;;;;;24.56;43.98;101549.63;5037673;28;45388;-67
2021/07/09 06:54:29;;;;;;;;;6.00;5.00;;;;;24.50;43.78;101558.00;5054643;28;45371;-67
2021/07/09 06:56:54;;;;;;;;;6.00;6.00;;;;;24.48;44.07;101558.03;5055855;28;45401;-66
2021/07/09 06:59:20;;;;;;;;;4.00;4.00;;;;;24.51;43.99;101565.22;5055836;28;45558;-66
2021/07/09 07:01:45;;;;;;;;;7.00;7.00;;;;;24.52;44.11;101561.56;5055024;28;45551;-66
2021/07/09 07:04:11;;;;;;;;;5.33;5.33;;;;;24.47;44.58;101567.09;5056001;28;45470;-67
2021/07/09 07:06:37;;;;;;;;;4.33;4.33;;;;;24.50;44.51;101558.91;5056826;28;45796;-67
2021/07/09 07:09:03;;;;;;;;;5.67;5.67;;;;;24.54;43.84;101562.41;5056287;28;46141;-67
2021/07/09 07:11:28;;;;;;;;;6.67;6.00;;;;;24.56;44.51;101557.78;5055450;28;45396;-67
2021/07/09 07:13:54;;;;;;;;;5.00;5.00;;;;;24.61;43.94;101560.41;5055620;28;45521;-67
2021/07/09 07:16:19;;;;;;;;;4.67;4.67;;;;;24.63;44.44;101562.13;5056240;28;45349;-67
2021/07/09 07:18:45;;;;;;;;;4.67;4.67;;;;;24.64;43.89;101563.91;5055303;28;45379;-67
2021/07/09 07:21:10;;;;;;;;;7.00;6.00;;;;;24.61;43.81;101569.44;5055641;28;45417;-66
2021/07/09 07:23:35;;;;;;;;;4.00;4.00;;;;;24.56;43.74;101568.69;5055895;28;45441;-67
2021/07/09 07:26:01;;;;;;;;;6.00;6.00;;;;;24.44;44.33;101563.59;5054410;28;45478;-67
2021/07/09 07:28:26;;;;;;;;;7.67;6.00;;;;;24.30;44.00;101570.34;5051140;28;45386;-66
2021/07/09 07:30:52;;;;;;;;;7.33;5.00;;;;;24.09;44.91;101571.84;5057145;28;45586;-66
2021/07/09 07:33:25;;;;;;;;;6.00;5.00;;;;;24.03;45.22;101572.03;5050889;28;45500;-67
2021/07/09 07:35:50;;;;;;;;;8.00;7.00;;;;;24.03;45.09;101566.59;5055362;28;45419;-67
2021/07/09 07:38:16;;;;;;;;;7.00;4.67;;;;;24.11;45.44;101566.38;5058028;28;46869;-66
2021/07/09 07:40:41;;;;;;;;;7.00;5.67;;;;;24.17;44.78;101569.81;5031457;28;45532;-66
2021/07/09 07:43:07;;;;;;;;;2.00;2.00;;;;;24.23;44.63;101562.41;5049366;28;46160;-66
2021/07/09 07:45:33;;;;;;;;;4.67;4.67;;;;;24.30;44.76;101561.31;5053240;28;45459;-67
2021/07/09 07:48:06;;;;;;;;;4.00;4.00;;;;;24.31;44.75;101561.25;5042639;28;45448;-67
2021/07/09 07:50:38;;;;;;;;;5.67;5.33;;;;;24.35;44.95;101560.22;5054249;28;46056;-64
2021/07/09 07:53:04;;;;;;;;;6.33;6.33;;;;;24.41;44.94;101564.56;5054617;28;44856;-66
2021/07/09 07:55:31;;;;;;;;;5.00;5.00;;;;;24.41;44.68;101561.88;5026784;28;45595;-65
2021/07/09 07:57:56;;;;;;;;;5.33;5.33;;;;;24.45;44.23;101563.53;5044449;28;45639;-67
2021/07/09 08:00:22;;;;;;;;;4.67;4.67;;;;;24.47;44.44;101560.78;5043388;28;45414;-67
2021/07/09 08:02:48;;;;;;;;;2.00;2.00;;;;;24.50;43.91;101571.59;5054719;28;45556;-68
2021/07/09 08:05:13;;;;;;;;;5.00;5.00;;;;;24.53;44.38;101566.94;5056071;28;45381;-67
2021/07/09 08:07:41;;;;;;;;;5.00;5.00;;;;;24.54;44.06;101554.25;5055847;28;45532;-68
2021/07/09 08:10:08;;;;;;;;;4.00;4.00;;;;;24.54;44.16;101563.31;5054936;28;45532;-68
2021/07/09 08:12:33;;;;;;;;;5.00;3.00;;;;;24.53;43.63;101566.06;5051258;28;45538;-69
2021/07/09 08:14:58;;;;;;;;;7.33;6.00;;;;;24.50;44.35;101560.72;5054770;28;45627;-68
2021/07/09 08:17:24;;;;;;;;;4.00;4.00;;;;;24.49;44.17;101562.50;5057229;28;46052;-67
2021/07/09 08:19:50;;;;;;;;;3.67;3.67;;;;;24.49;44.36;101553.47;5055112;28;45418;-67
2021/07/09 08:22:16;;;;;;;;;6.33;5.33;;;;;24.51;44.35;101554.34;5042568;28;45406;-70
2021/07/09 08:24:41;;;;;;;;;5.33;4.67;;;;;24.50;44.22;101549.84;5054248;28;45448;-66
2021/07/09 08:27:07;;;;;;;;;2.00;2.00;;;;;24.49;44.45;101548.03;5053621;28;45513;-68
2021/07/09 08:29:32;;;;;;;;;5.67;5.67;;;;;24.52;43.89;101548.88;5054308;28;45503;-69
2021/07/09 08:31:59;;;;;;;;;6.67;6.33;;;;;24.55;44.04;101550.59;5054340;28;45775;-71
2021/07/09 08:34:25;;;;;;;;;5.33;5.33;;;;;24.58;43.87;101549.59;5054211;28;45413;-68
2021/07/09 08:36:59;;;;;;;;;6.00;6.00;;;;;24.58;44.59;101544.16;5053353;28;45382;-69
2021/07/09 08:39:24;;;;;;;;;5.00;4.67;;;;;24.57;44.36;101539.69;5053447;28;45480;-68
2021/07/09 08:41:55;;;;;;;;;3.33;3.33;;;;;24.59;44.06;101544.13;5075366;28;45486;-69
2021/07/09 08:44:22;;;;;;;;;4.00;4.00;;;;;24.59;44.42;101540.53;5064715;28;45423;-68
2021/07/09 08:46:50;;;;;;;;;6.67;6.67;;;;;24.62;43.75;101538.59;5054134;28;45604;-66
2021/07/09 08:49:17;;;;;;;;;7.67;7.67;;;;;24.60;43.84;101545.00;5027776;28;45537;-67
2021/07/09 08:51:45;;;;;;;;;5.00;5.00;;;;;24.55;43.88;101535.16;5034937;28;45490;-67
2021/07/09 08:54:12;;;;;;;;;4.33;4.33;;;;;24.58;44.34;101536.00;5033914;28;45343;-67
2021/07/09 08:56:40;;;;;;;;;6.00;6.00;;;;;24.55;44.10;101537.88;5043932;28;45575;-68
2021/07/09 08:59:08;;;;;;;;;7.33;7.33;;;;;24.61;43.96;101544.06;5036745;28;45497;-68
2021/07/09 09:02:03;;;;;;;;;5.33;5.33;;;;;24.64;43.75;101536.72;5033019;28;45568;-67
2021/07/09 09:04:30;;;;;;;;;5.00;5.00;;;;;24.66;43.61;101539.38;5021932;28;45570;-66
2021/07/09 09:07:08;;;;;;;;;5.67;5.67;;;;;24.65;43.79;101537.59;5033271;28;45735;-66
2021/07/09 09:09:39;;;;;;;;;6.00;6.00;;;;;24.67;43.63;101533.88;5033837;28;45560;-67
2021/07/09 09:12:09;;;;;;;;;6.33;4.00;;;;;24.68;43.79;101534.75;5033946;28;45347;-66
2021/07/09 09:14:37;;;;;;;;;4.00;4.00;;;;;24.71;43.56;101532.84;5033377;28;45421;-66
2021/07/09 09:17:34;;;;;;;;;5.00;5.00;;;;;24.74;43.78;101529.13;5033525;28;45787;-66
2021/07/09 09:20:18;;;;;;;;;3.67;3.67;;;;;24.77;44.14;101525.44;5033379;28;45738;-66
2021/07/09 09:22:49;;;;;;;;;5.33;5.33;;;;;24.78;44.03;101533.53;5018522;28;45422;-65
2021/07/09 09:25:16;;;;;;;;;3.67;3.67;;;;;24.79;43.69;101529.88;5033645;28;45480;-65
2021/07/09 09:27:42;;;;;;;;;8.00;6.00;;;;;24.82;43.54;101524.31;5033303;28;45552;-68
2021/07/09 09:30:12;;;;;;;;;8.33;5.33;;;;;24.86;44.00;101527.84;5033367;28;45418;-67
2021/07/09 09:32:49;;;;;;;;;6.00;4.67;;;;;24.87;43.75;101527.78;5033975;28;45494;-68
2021/07/09 09:35:27;;;;;;;;;3.00;3.00;;;;;24.90;43.87;101527.69;5033850;28;45527;-70
2021/07/09 09:38:02;;;;;;;;;5.00;5.00;;;;;24.98;43.65;101529.25;5033824;28;46032;-67
2021/07/09 09:40:29;;;;;;;;;6.33;6.33;;;;;25.03;43.90;101527.28;5033183;28;45398;-67
2021/07/09 09:42:55;;;;;;;;;5.00;5.00;;;;;25.05;43.88;101522.69;5033476;28;45394;-68
2021/07/09 09:45:24;;;;;;;;;3.00;2.67;;;;;25.08;43.65;101523.44;5034148;28;45426;-67
2021/07/09 09:47:50;;;;;;;;;5.67;4.33;;;;;25.11;43.19;101527.94;5033837;28;46309;-68
2021/07/09 09:50:20;;;;;;;;;4.00;4.00;;;;;25.12;43.10;101527.84;5055912;28;45469;-68
2021/07/09 09:52:51;;;;;;;;;4.33;4.33;;;;;25.15;43.24;101526.88;5058530;28;45488;-69
2021/07/09 09:55:30;;;;;;;;;4.00;4.00;;;;;25.19;42.91;101528.56;5056855;28;45733;-66
2021/07/09 09:58:18;;;;;;;;;3.00;3.00;;;;;25.22;43.20;101528.47;5044320;28;45512;-66
2021/07/09 10:00:46;;;;;;;;;4.67;4.67;;;;;25.21;43.34;101520.31;5053134;28;45516;-67
2021/07/09 10:03:11;;;;;;;;;7.00;5.67;;;;;25.22;43.37;101533.91;5057167;28;45401;-67
2021/07/09 10:05:39;;;;;;;;;4.67;4.67;;;;;25.25;42.96;101527.47;5060082;28;45435;-67
2021/07/09 10:08:10;;;;;;;;;4.00;4.00;;;;;25.25;42.90;101522.94;5045513;28;48261;-67
2021/07/09 10:11:16;;;;;;;;;4.00;4.00;;;;;25.26;43.32;101518.38;5055487;28;45450;-68
2021/07/09 10:13:42;;;;;;;;;3.67;3.67;;;;;25.26;43.08;101513.78;5036875;28;45424;-67
2021/07/09 10:16:08;;;;;;;;;5.00;5.00;;;;;25.23;43.06;101522.09;5050266;28;45654;-67
2021/07/09 10:18:33;;;;;;;;;4.00;4.00;;;;;25.21;43.30;101518.53;5058040;28;46488;-66
2021/07/09 10:20:59;;;;;;;;;6.00;6.00;;;;;25.19;43.49;101517.66;5054720;28;45406;-67
2021/07/09 10:23:24;;;;;;;;;4.00;4.00;;;;;25.14;43.03;101511.47;5051243;28;45486;-68
2021/07/09 10:25:52;;;;;;;;;3.33;3.33;;;;;25.20;43.22;101518.53;5056900;28;45417;-67
2021/07/09 10:28:22;;;;;;;;;4.00;4.00;;;;;25.19;43.04;101520.38;5056707;28;45743;-67
2021/07/09 10:30:48;;;;;;;;;7.00;5.67;;;;;25.20;43.08;101522.16;5056764;28;45460;-67
2021/07/09 10:33:36;;;;;;;;;6.00;5.00;;;;;25.18;43.03;101520.44;5058464;28;45479;-67
2021/07/09 10:36:28;;;;;;;;;4.00;4.00;;;;;25.15;43.26;101516.88;5058008;28;45730;-68
2021/07/09 10:38:54;;;;;;;;;4.00;4.00;;;;;25.16;42.83;101512.31;5058083;28;45420;-68
2021/07/09 10:41:22;;;;;;;;;5.67;5.67;;;;;25.18;42.77;101520.44;5056367;28;45385;-68
2021/07/09 10:44:18;;;;;;;;;5.67;5.33;;;;;25.08;42.60;101515.28;5057574;28;45776;-69
2021/07/09 10:46:44;;;;;;;;;4.33;4.33;;;;;24.91;42.74;101517.72;5056636;28;45451;-67
2021/07/09 10:49:10;;;;;;;;;5.67;5.67;;;;;24.74;42.65;101510.09;5056474;28;46124;-69
2021/07/09 10:51:49;;;;;;;;;2.00;2.00;;;;;24.70;43.66;101527.44;5051604;28;45464;-66
2021/07/09 10:54:26;;;;;;;;;4.33;4.33;;;;;24.76;43.28;101513.63;5056087;28;46927;-69
2021/07/09 10:57:20;;;;;;;;;3.00;3.00;;;;;24.86;43.67;101512.41;5058389;28;45676;-66
2021/07/09 11:00:20;;;;;;;;;2.00;2.00;;;;;25.01;43.28;101512.84;5035326;28;45974;-66
2021/07/09 11:06:43;;;;;;;;;1.67;1.67;;;;;25.32;43.28;101507.25;5011255;28;45577;-66
2021/07/09 11:09:10;;;;;;;;;1.00;1.00;;;;;25.41;43.21;101501.50;5036069;28;45403;-67
2021/07/09 11:11:42;;;;;;;;;1.00;1.00;;;;;25.52;43.25;101492.94;5056002;28;45416;-64
2021/07/09 11:14:18;;;;;;;;;0.00;0.00;;;;;25.64;43.17;101491.59;5056171;28;45850;-64
2021/07/09 11:16:48;;;;;;;;;1.00;1.00;;;;;25.72;43.03;101479.44;5073132;28;45489;-66
2021/07/09 11:19:20;;;;;;;;;1.00;1.00;;;;;25.81;42.94;101477.31;5076957;28;45490;-67
2021/07/09 11:21:48;;;;;;;;;2.00;2.00;;;;;25.89;43.29;101477.91;5062031;28;45553;-66
2021/07/09 11:24:36;;;;;;;;;2.00;0.33;;;;;25.99;42.92;101470.31;5056616;28;45437;-67
2021/07/09 11:27:07;;;;;;;;;0.67;0.67;;;;;26.09;43.18;101478.06;5054854;28;45358;-66
2021/07/09 11:29:46;;;;;;;;;0.00;0.00;;;;;26.17;43.16;101468.72;5055557;28;45672;-67
2021/07/09 11:32:16;;;;;;;;;1.33;0.33;;;;;26.28;43.03;101477.38;5055210;28;45808;-67